OISA  Abadeh Airport

Add Bookmark

Abadeh, Iran

Status
Operational
Latitude Longitude
31° 10' 0" N 52° 40' 0" E
31.166668 52.666668
Local (DST + 5) UTC (GMT + 4)
Jul 31, 2014 05:47 Jul 31, 2014 01:17
Sunrise-Sunset Local UTC
Begin Civil Twilight 05:48 01:18
Sunrise 06:14 01:44
Sunset 07:57 15:27
End Civil Twilight 08:23 15:53

Current Weather

METAR Observed MVFR
OISA 310055Z 31006KT 8000 SKC 20/02 Q1016 Thu, Jul 31, 2014 @ 00:55 UTC
(22 Minutes ago)
Marginal Visual Flight Rules

Decoded METAR

Wind Visibility Clouds Conditions
310° at 6 knots (11 kph) 8000 meters
  • Clear skies
  • No significant weather
Temperatures Readings Precipitation
Current Temp 20°C (68°F)
Dewpoint 2°C (36°F)
Humidity 30%
Altimeter 30"Hg
Sea Level Pressure 1016mb
Field Elevation 6574.8'
None Recorded

Additional weather within a 185.2km radius of OISA

Map ICAO Location
OISY 118.7km W (244°)
OIYY 173.2km E (061°)
OISS 180.9km S (182°)

24 Hour Weather History

Loading
-

24 Hour Weather Graphs

Loading
-

CheckWX.com is intended as a tool to help pilots better visualize weather data. It is not intended as a substitute for an official weather briefing obtained from a Flight Service Station. CheckWX.com does not meet the FAA requirements for an official pre-flight weather briefing. Therefore, it's important that pilots still call and obtain an official FSS pre-flight weather briefing.